This is the latest recevied weather packets stored in our database for station/object XE3JAR. If no packets are shown the sender has not sent any weather packets the latest 10 day(s).
| Time | Temp. | Humidity | Pressure | Rain* | Wind** | Luminosity | Snow |
|---|---|---|---|---|---|---|---|
| 1778274903 | 38.89° C | 62% | 1010.8 hPa | - | - | - | - |
| 1778270344 | 42.22° C | 58% | 1011.8 hPa | - | - | - | - |
| 1778270043 | 42.22° C | 57% | 1012.2 hPa | - | - | - | - |
| 1778269732 | 42.22° C | 56% | 1012.2 hPa | - | - | - | - |
| 1778269125 | 42.22° C | 58% | 1012.5 hPa | - | - | - | - |
| 1778267910 | 40° C | 62% | 1012.5 hPa | - | - | - | - |
| 1778267633 | 40° C | 63% | 1012.5 hPa | - | - | - | - |
| 1778266702 | 38.89° C | 62% | 1013.2 hPa | - | - | - | - |
| 1778265795 | 38.89° C | 63% | 1013.2 hPa | - | - | - | - |
| 1778265483 | 40° C | 63% | 1013.2 hPa | - | - | - | - |
| 1778265183 | 40° C | 62% | 1013.2 hPa | - | - | - | - |
| 1778264595 | 41.11° C | 59% | 1013.2 hPa | - | - | - | - |
| 1778263845 | 42.78° C | 57% | 1013.6 hPa | - | - | - | - |
| 1778260782 | 42.22° C | 59% | 1014.2 hPa | - | - | - | - |
| 1778259876 | 42.78° C | 56% | 1014.6 hPa | - | - | - | - |
| 1778259268 | 42.78° C | 56% | 1014.6 hPa | - | - | - | - |
| 1778254425 | 37.22° C | 69% | 1015.2 hPa | - | - | - | - |
| 1778253795 | 35° C | 75% | 1015.2 hPa | - | - | - | - |
| 1778253496 | 35° C | 75% | 1015.2 hPa | - | - | - | - |
| 1778249557 | 33.89° C | 78% | 1015.2 hPa | - | - | - | - |
| 1778247404 | 32.22° C | 85% | 1014.9 hPa | - | - | - | - |
| 1778246800 | 31.11° C | 87% | 1014.9 hPa | - | - | - | - |
| 1778245579 | 28.89° C | 93% | 1014.6 hPa | - | - | - | - |
| 1778245276 | 27.78° C | 94% | 1014.6 hPa | - | - | - | - |
| 1778244060 | 27.22° C | 97% | 1014.6 hPa | - | - | - | - |
* Rain since midnight (hover to see other rain measurements)
** Current wind speed in m/s (hover to see current wind gust speed)